createdAt,value
2022-10-08T00:00:20.125Z,0.00
2022-10-08T00:01:20.120Z,0.00
2022-10-08T00:02:20.162Z,0.00
2022-10-08T00:03:20.094Z,0.00
2022-10-08T00:04:20.089Z,0.00
2022-10-08T00:05:20.056Z,0.00
2022-10-08T00:06:20.045Z,0.00
2022-10-08T00:07:20.059Z,0.00
2022-10-08T00:08:20.050Z,0.00
2022-10-08T00:09:20.008Z,0.00
2022-10-08T00:10:19.993Z,0.00
2022-10-08T00:11:19.984Z,0.00
2022-10-08T00:12:19.988Z,0.00
2022-10-08T00:13:19.974Z,0.00
2022-10-08T00:14:26.517Z,0.00
2022-10-08T00:15:19.936Z,0.00
2022-10-08T00:16:19.989Z,0.00
2022-10-08T00:17:19.933Z,0.00
2022-10-08T00:18:19.932Z,0.00
2022-10-08T00:19:19.887Z,0.00
2022-10-08T00:20:19.890Z,0.00
2022-10-08T00:21:19.871Z,0.00
2022-10-08T00:22:19.877Z,0.00
2022-10-08T00:23:19.861Z,0.00
2022-10-08T00:24:19.839Z,0.00
2022-10-08T00:25:19.822Z,0.00
2022-10-08T00:26:19.815Z,0.00
2022-10-08T00:27:19.827Z,0.00
2022-10-08T00:28:19.868Z,0.00
2022-10-08T00:29:19.778Z,0.00
2022-10-08T00:30:19.795Z,0.00
2022-10-08T00:31:19.812Z,0.00
2022-10-08T00:32:19.750Z,0.00
2022-10-08T00:33:19.752Z,0.00
2022-10-08T00:34:19.725Z,0.00
2022-10-08T00:35:19.728Z,0.00
2022-10-08T00:36:19.731Z,0.00
2022-10-08T00:37:19.701Z,0.00
2022-10-08T00:38:19.703Z,0.00
2022-10-08T00:39:19.669Z,0.00
2022-10-08T00:40:19.681Z,0.00
2022-10-08T00:41:20.811Z,0.00
2022-10-08T00:42:19.638Z,0.00
2022-10-08T00:43:23.903Z,0.00
2022-10-08T00:44:19.624Z,0.00
2022-10-08T00:45:19.603Z,0.00
2022-10-08T00:46:19.603Z,0.00
2022-10-08T00:47:19.576Z,0.00
2022-10-08T00:48:19.609Z,0.00
2022-10-08T00:49:19.557Z,0.00
2022-10-08T00:50:19.589Z,0.00
2022-10-08T00:51:19.529Z,0.00
2022-10-08T00:52:19.524Z,0.00
2022-10-08T00:53:19.529Z,0.00
2022-10-08T00:54:19.564Z,0.00
2022-10-08T00:55:19.487Z,0.00
2022-10-08T00:56:19.489Z,0.00
2022-10-08T00:57:19.463Z,0.00
2022-10-08T00:58:19.492Z,0.00
2022-10-08T00:59:19.448Z,0.00
2022-10-08T01:00:19.442Z,0.00
2022-10-08T01:01:19.462Z,0.00
2022-10-08T01:02:19.593Z,0.00
2022-10-08T01:03:19.416Z,0.00
2022-10-08T01:04:19.388Z,0.00
2022-10-08T01:05:19.378Z,0.00
2022-10-08T01:06:19.378Z,0.00
2022-10-08T01:07:19.368Z,0.00
2022-10-08T01:08:19.371Z,0.00
2022-10-08T01:09:19.736Z,0.00
2022-10-08T01:10:19.335Z,0.00
2022-10-08T01:11:19.304Z,0.00
2022-10-08T01:12:19.318Z,0.00
2022-10-08T01:13:19.308Z,0.00
2022-10-08T01:14:19.282Z,0.00
2022-10-08T01:15:19.272Z,0.00
2022-10-08T01:16:19.294Z,0.00
2022-10-08T01:17:19.249Z,0.00
2022-10-08T01:18:19.256Z,0.00
2022-10-08T01:19:19.237Z,0.00
2022-10-08T01:20:19.214Z,0.00
2022-10-08T01:21:19.205Z,0.00
2022-10-08T01:22:19.190Z,0.00
2022-10-08T01:23:19.196Z,0.00
2022-10-08T01:24:19.168Z,0.00
2022-10-08T01:25:19.183Z,0.00
2022-10-08T01:26:19.154Z,0.00
2022-10-08T01:27:19.140Z,0.00
2022-10-08T01:28:19.206Z,0.00
2022-10-08T01:29:19.110Z,0.00
2022-10-08T01:30:19.120Z,0.00
2022-10-08T01:31:19.241Z,0.00
2022-10-08T01:32:19.085Z,0.00
2022-10-08T01:33:19.143Z,0.00
2022-10-08T01:34:19.078Z,0.00
2022-10-08T01:35:19.042Z,0.00
2022-10-08T01:36:19.039Z,0.00
2022-10-08T01:37:19.023Z,0.00
2022-10-08T01:38:19.037Z,0.00
2022-10-08T01:39:19.009Z,0.00
2022-10-08T01:40:18.991Z,0.00
2022-10-08T01:41:18.986Z,0.00
2022-10-08T01:42:18.977Z,0.00
2022-10-08T01:43:18.976Z,0.00
2022-10-08T01:44:18.959Z,0.00
2022-10-08T01:45:18.933Z,0.00
2022-10-08T01:46:19.010Z,0.00
2022-10-08T01:47:18.921Z,0.00
2022-10-08T01:48:18.935Z,0.00
2022-10-08T01:49:18.908Z,0.00
2022-10-08T01:50:18.888Z,0.00
2022-10-08T01:51:18.885Z,0.00
2022-10-08T01:52:18.877Z,0.00
2022-10-08T01:53:18.873Z,0.00
2022-10-08T01:54:18.839Z,0.00
2022-10-08T01:55:18.851Z,0.00
2022-10-08T01:56:18.816Z,0.00
2022-10-08T01:57:18.827Z,0.00
2022-10-08T01:58:18.838Z,0.00
2022-10-08T01:59:18.797Z,0.00
2022-10-08T02:00:18.775Z,0.00
2022-10-08T02:01:18.818Z,0.00
2022-10-08T02:02:18.823Z,0.00
2022-10-08T02:03:18.775Z,0.00
2022-10-08T02:04:18.743Z,0.00
2022-10-08T02:05:18.715Z,0.00
2022-10-08T02:06:18.717Z,0.00
2022-10-08T02:07:18.695Z,0.00
2022-10-08T02:08:18.715Z,0.00
2022-10-08T02:09:18.672Z,0.00
2022-10-08T02:10:18.667Z,0.00
2022-10-08T02:11:18.665Z,0.00
2022-10-08T02:12:18.671Z,0.00
2022-10-08T02:13:18.653Z,0.00
2022-10-08T02:14:18.619Z,0.00
2022-10-08T02:15:18.608Z,0.00
2022-10-08T02:16:18.639Z,0.00
2022-10-08T02:17:18.584Z,0.00
2022-10-08T02:18:18.602Z,0.00
2022-10-08T02:19:18.605Z,0.00
2022-10-08T02:20:18.560Z,0.00
2022-10-08T02:21:18.543Z,0.00
2022-10-08T02:22:18.542Z,0.00
2022-10-08T02:23:18.549Z,0.00
2022-10-08T02:24:18.514Z,0.00
2022-10-08T02:25:18.507Z,0.00
2022-10-08T02:26:18.488Z,0.00
2022-10-08T02:27:18.478Z,0.00
2022-10-08T02:28:18.528Z,0.00
2022-10-08T02:29:18.449Z,0.00
2022-10-08T02:30:18.459Z,0.00
2022-10-08T02:31:18.467Z,0.00
2022-10-08T02:32:18.427Z,0.00
2022-10-08T02:33:18.425Z,0.00
2022-10-08T02:34:18.414Z,0.00
2022-10-08T02:35:18.402Z,0.00
2022-10-08T02:36:18.390Z,0.00
2022-10-08T02:37:18.369Z,0.00
2022-10-08T02:38:18.365Z,0.00
2022-10-08T02:39:18.368Z,0.00
2022-10-08T02:40:18.343Z,0.00
2022-10-08T02:41:18.337Z,0.00
2022-10-08T02:42:18.341Z,0.00
2022-10-08T02:43:18.299Z,0.00
2022-10-08T02:44:18.310Z,0.00
2022-10-08T02:45:18.306Z,0.00
2022-10-08T02:46:18.301Z,0.00
2022-10-08T02:47:18.270Z,0.00
2022-10-08T02:48:18.250Z,0.00
2022-10-08T02:49:18.248Z,0.00
2022-10-08T02:50:18.227Z,0.00
2022-10-08T02:51:18.216Z,0.00
2022-10-08T02:52:18.205Z,0.00
2022-10-08T02:53:18.191Z,0.00
2022-10-08T02:54:18.230Z,0.00
2022-10-08T02:55:18.173Z,0.00
2022-10-08T02:56:18.184Z,0.00
2022-10-08T02:57:18.149Z,0.00
2022-10-08T02:58:18.140Z,0.00
2022-10-08T02:59:18.183Z,0.00
2022-10-08T03:00:18.129Z,0.00
2022-10-08T03:01:18.153Z,0.00
2022-10-08T03:02:18.137Z,0.00
2022-10-08T03:03:18.087Z,0.00
2022-10-08T03:04:18.110Z,0.00
2022-10-08T03:05:18.063Z,0.00
2022-10-08T03:06:18.070Z,0.00
2022-10-08T03:07:18.040Z,0.00
2022-10-08T03:08:18.025Z,0.00
2022-10-08T03:09:18.029Z,0.00
2022-10-08T03:10:18.041Z,0.00
2022-10-08T03:11:18.001Z,0.00
2022-10-08T03:12:17.986Z,0.00
2022-10-08T03:13:17.977Z,0.00
2022-10-08T03:14:18.006Z,0.00
2022-10-08T03:15:17.956Z,0.00
2022-10-08T03:16:18.011Z,0.00
2022-10-08T03:17:17.928Z,0.00
2022-10-08T03:18:17.910Z,0.00
2022-10-08T03:19:17.944Z,0.00
2022-10-08T03:20:17.894Z,0.00
2022-10-08T03:21:17.895Z,0.00
2022-10-08T03:22:17.878Z,0.00
2022-10-08T03:23:17.865Z,0.00
2022-10-08T03:24:17.870Z,0.00
2022-10-08T03:25:17.844Z,0.00
2022-10-08T03:26:17.828Z,0.00
2022-10-08T03:27:17.822Z,0.00
2022-10-08T03:28:17.950Z,0.00
2022-10-08T03:29:17.810Z,0.00
2022-10-08T03:30:17.787Z,0.00
2022-10-08T03:31:17.849Z,0.00
2022-10-08T03:32:17.817Z,0.00
2022-10-08T03:33:17.749Z,0.00
2022-10-08T03:34:17.776Z,0.00
2022-10-08T03:35:17.742Z,0.00
2022-10-08T03:36:17.717Z,0.00
2022-10-08T03:37:17.705Z,0.00
2022-10-08T03:38:17.722Z,0.00
2022-10-08T03:39:17.700Z,0.00
2022-10-08T03:40:17.681Z,0.00
2022-10-08T03:41:17.663Z,0.00
2022-10-08T03:42:17.648Z,0.00
2022-10-08T03:43:17.641Z,0.00
2022-10-08T03:44:17.654Z,0.00
2022-10-08T03:45:17.616Z,0.00
2022-10-08T03:46:17.684Z,0.00
2022-10-08T03:47:17.628Z,0.00
2022-10-08T03:48:17.585Z,0.00
2022-10-08T03:49:17.580Z,0.00
2022-10-08T03:50:17.564Z,0.00
2022-10-08T03:51:17.548Z,0.00
2022-10-08T03:52:17.538Z,0.00
2022-10-08T03:53:17.522Z,0.00
2022-10-08T03:54:17.537Z,0.00
2022-10-08T03:55:17.501Z,0.00
2022-10-08T03:56:17.489Z,0.00
2022-10-08T03:57:17.508Z,0.00
2022-10-08T03:58:17.472Z,0.00
2022-10-08T03:59:17.465Z,0.00
2022-10-08T04:00:17.446Z,0.00
2022-10-08T04:01:17.505Z,0.00
2022-10-08T04:02:17.469Z,0.00
2022-10-08T04:03:17.412Z,0.00
2022-10-08T04:04:20.653Z,0.00
2022-10-08T04:05:17.396Z,0.00
2022-10-08T04:06:17.399Z,0.00
2022-10-08T04:07:17.376Z,0.00
2022-10-08T04:08:17.357Z,0.00
2022-10-08T04:09:17.363Z,0.00
2022-10-08T04:10:17.345Z,0.00
2022-10-08T04:11:17.324Z,0.00
2022-10-08T04:12:17.324Z,0.00
2022-10-08T04:13:17.311Z,0.00
2022-10-08T04:14:17.327Z,0.00
2022-10-08T04:15:17.278Z,0.00
2022-10-08T04:16:17.352Z,0.00
2022-10-08T04:17:17.261Z,0.00
2022-10-08T04:18:17.247Z,0.00
2022-10-08T04:19:17.271Z,0.00
2022-10-08T04:20:17.222Z,0.00
2022-10-08T04:21:17.210Z,0.00
2022-10-08T04:22:17.199Z,0.00
2022-10-08T04:23:17.185Z,0.00
2022-10-08T04:24:17.209Z,0.00
2022-10-08T04:25:17.168Z,0.00
2022-10-08T04:26:17.154Z,0.00
2022-10-08T04:27:17.160Z,0.00
2022-10-08T04:28:17.184Z,0.00
2022-10-08T04:29:17.140Z,0.00
2022-10-08T04:30:17.120Z,0.00
2022-10-08T04:31:17.219Z,0.00
2022-10-08T04:32:17.091Z,0.00
2022-10-08T04:33:17.086Z,0.00
2022-10-08T04:34:17.090Z,0.00
2022-10-08T04:35:17.076Z,0.00
2022-10-08T04:36:17.058Z,0.00
2022-10-08T04:37:17.029Z,0.00
2022-10-08T04:38:17.030Z,0.00
2022-10-08T04:39:17.027Z,0.00
2022-10-08T04:40:17.001Z,0.00
2022-10-08T04:41:16.988Z,0.00
2022-10-08T04:42:16.980Z,0.00
2022-10-08T04:43:16.970Z,0.00
2022-10-08T04:44:16.968Z,0.00
2022-10-08T04:45:16.941Z,0.00
2022-10-08T04:46:17.017Z,0.00
2022-10-08T04:47:16.923Z,0.00
2022-10-08T04:48:16.912Z,0.00
2022-10-08T04:49:16.918Z,0.00
2022-10-08T04:50:16.894Z,0.00
2022-10-08T04:51:16.876Z,0.00
2022-10-08T04:52:16.863Z,0.00
2022-10-08T04:53:16.872Z,0.00
2022-10-08T04:54:16.858Z,0.00
2022-10-08T04:55:16.834Z,0.00
2022-10-08T04:56:16.824Z,0.00
2022-10-08T04:57:16.809Z,0.00
2022-10-08T04:58:16.796Z,0.00
2022-10-08T04:59:16.822Z,0.00
2022-10-08T05:00:19.118Z,0.00
2022-10-08T05:01:16.837Z,0.00
2022-10-08T05:02:16.771Z,0.00
2022-10-08T05:03:16.742Z,0.00
2022-10-08T05:04:16.745Z,0.00
2022-10-08T05:05:16.716Z,0.00
2022-10-08T05:06:16.718Z,0.00
2022-10-08T05:07:16.695Z,0.00
2022-10-08T05:08:16.693Z,0.00
2022-10-08T05:09:16.684Z,4.00
2022-10-08T05:10:16.678Z,4.00
2022-10-08T05:11:16.648Z,4.00
2022-10-08T05:12:16.648Z,0.00
2022-10-08T05:13:16.633Z,4.00
2022-10-08T05:14:16.644Z,4.00
2022-10-08T05:15:16.605Z,4.00
2022-10-08T05:16:16.688Z,4.00
2022-10-08T05:17:16.598Z,4.00
2022-10-08T05:18:16.574Z,8.00
2022-10-08T05:19:16.577Z,12.00
2022-10-08T05:20:16.548Z,12.00
2022-10-08T05:21:16.597Z,12.00
2022-10-08T05:22:16.528Z,12.00
2022-10-08T05:23:16.517Z,16.00
2022-10-08T05:24:16.537Z,16.00
2022-10-08T05:25:16.499Z,20.00
2022-10-08T05:26:16.489Z,24.00
2022-10-08T05:27:16.471Z,28.00
2022-10-08T05:28:16.507Z,28.00
2022-10-08T05:29:16.447Z,36.00
2022-10-08T05:30:21.082Z,36.00
2022-10-08T05:31:16.584Z,44.00
2022-10-08T05:32:16.415Z,48.00
2022-10-08T05:33:16.411Z,48.00
2022-10-08T05:34:16.416Z,56.00
2022-10-08T05:35:16.399Z,64.00
2022-10-08T05:36:16.405Z,72.00
2022-10-08T05:37:16.354Z,80.00
2022-10-08T05:38:16.535Z,92.00
2022-10-08T05:39:16.340Z,104.00
2022-10-08T05:40:16.348Z,124.00
2022-10-08T05:41:16.318Z,140.00
2022-10-08T05:42:16.325Z,148.00
2022-10-08T05:43:16.293Z,152.00
2022-10-08T05:44:16.281Z,164.00
2022-10-08T05:45:16.336Z,168.00
2022-10-08T05:46:16.286Z,172.00
2022-10-08T05:47:16.245Z,176.00
2022-10-08T05:48:16.241Z,180.00
2022-10-08T05:49:16.218Z,180.00
2022-10-08T05:50:16.232Z,188.00
2022-10-08T05:51:16.200Z,196.00
2022-10-08T05:52:16.200Z,208.00
2022-10-08T05:53:16.176Z,228.00
2022-10-08T05:54:16.175Z,244.00
2022-10-08T05:55:16.437Z,272.00
2022-10-08T05:56:16.277Z,300.00
2022-10-08T05:57:16.173Z,328.00
2022-10-08T05:58:16.132Z,360.00
2022-10-08T05:59:16.113Z,384.00
2022-10-08T06:00:16.122Z,408.00
2022-10-08T06:01:16.115Z,424.00
2022-10-08T06:02:16.085Z,456.00
2022-10-08T06:03:16.271Z,504.00
2022-10-08T06:04:16.090Z,524.00
2022-10-08T06:05:16.063Z,572.00
2022-10-08T06:06:16.065Z,640.00
2022-10-08T06:07:16.022Z,672.00
2022-10-08T06:08:16.017Z,680.00
2022-10-08T06:09:16.002Z,692.00
2022-10-08T06:10:16.055Z,736.00
2022-10-08T06:11:15.983Z,796.00
2022-10-08T06:12:16.002Z,792.00
2022-10-08T06:13:15.960Z,728.00
2022-10-08T06:14:15.946Z,692.00
2022-10-08T06:15:24.736Z,704.00
2022-10-08T06:16:15.975Z,712.00
2022-10-08T06:17:15.911Z,680.00
2022-10-08T06:18:15.921Z,632.00
2022-10-08T06:19:15.897Z,596.00
2022-10-08T06:20:15.906Z,596.00
2022-10-08T06:21:15.879Z,592.00
2022-10-08T06:22:15.889Z,588.00
2022-10-08T06:23:15.850Z,624.00
2022-10-08T06:24:15.852Z,656.00
2022-10-08T06:25:15.859Z,684.00
2022-10-08T06:26:15.825Z,700.00
2022-10-08T06:27:15.808Z,700.00
2022-10-08T06:28:15.847Z,668.00
2022-10-08T06:29:15.787Z,636.00
2022-10-08T06:30:15.803Z,628.00
2022-10-08T06:31:15.781Z,628.00
2022-10-08T06:32:15.762Z,632.00
2022-10-08T06:33:15.734Z,632.00
2022-10-08T06:34:15.725Z,640.00
2022-10-08T06:35:15.735Z,640.00
2022-10-08T06:36:15.709Z,648.00
2022-10-08T06:37:15.698Z,656.00
2022-10-08T06:38:15.679Z,672.00
2022-10-08T06:39:15.674Z,676.00
2022-10-08T06:40:15.681Z,692.00
2022-10-08T06:41:15.737Z,716.00
2022-10-08T06:42:16.656Z,740.00
2022-10-08T06:43:15.637Z,752.00
2022-10-08T06:44:15.629Z,760.00
2022-10-08T06:45:15.632Z,764.00
2022-10-08T06:46:15.648Z,788.00
2022-10-08T06:47:15.578Z,792.00
2022-10-08T06:48:15.579Z,812.00
2022-10-08T06:49:15.554Z,856.00
2022-10-08T06:50:15.569Z,868.00
2022-10-08T06:51:15.531Z,884.00
2022-10-08T06:52:15.533Z,904.00
2022-10-08T06:53:15.514Z,932.00
2022-10-08T06:54:15.495Z,968.00
2022-10-08T06:55:15.529Z,992.00
2022-10-08T06:56:15.477Z,944.00
2022-10-08T06:57:15.470Z,988.00
2022-10-08T06:58:15.463Z,1052.00
2022-10-08T06:59:15.466Z,1060.00
2022-10-08T07:00:15.459Z,1084.00
2022-10-08T07:01:15.471Z,1060.00
2022-10-08T07:02:15.611Z,1080.00
2022-10-08T07:03:15.401Z,1084.00
2022-10-08T07:04:15.454Z,1088.00
2022-10-08T07:05:15.441Z,1088.00
2022-10-08T07:06:15.389Z,1092.00
2022-10-08T07:07:15.361Z,1100.00
2022-10-08T07:08:15.440Z,1104.00
2022-10-08T07:09:15.343Z,1112.00
2022-10-08T07:10:18.338Z,1120.00
2022-10-08T07:11:15.318Z,1120.00
2022-10-08T07:12:15.351Z,1128.00
2022-10-08T07:13:15.302Z,1136.00
2022-10-08T07:14:15.291Z,1144.00
2022-10-08T07:15:15.337Z,1152.00
2022-10-08T07:16:20.384Z,1156.00
2022-10-08T07:17:15.249Z,1156.00
2022-10-08T07:18:15.250Z,1164.00
2022-10-08T07:19:15.227Z,1168.00
2022-10-08T07:20:15.229Z,1172.00
2022-10-08T07:21:15.229Z,1188.00
2022-10-08T07:22:15.234Z,1188.00
2022-10-08T07:23:15.189Z,1196.00
2022-10-08T07:24:15.223Z,1204.00
2022-10-08T07:25:15.193Z,1224.00
2022-10-08T07:26:15.149Z,1208.00
2022-10-08T07:27:15.134Z,1240.00
2022-10-08T07:28:15.180Z,1268.00
2022-10-08T07:29:15.118Z,1296.00
2022-10-08T07:30:15.140Z,1336.00
2022-10-08T07:31:15.170Z,1412.00
2022-10-08T07:32:15.089Z,1524.00
2022-10-08T07:33:15.086Z,1656.00
2022-10-08T07:34:15.085Z,1712.00
2022-10-08T07:35:15.064Z,1756.00
2022-10-08T07:36:15.057Z,1852.00
2022-10-08T07:37:15.028Z,1920.00
2022-10-08T07:38:15.036Z,1820.00
2022-10-08T07:39:15.019Z,1812.00
2022-10-08T07:40:15.032Z,1800.00
2022-10-08T07:41:14.994Z,1736.00
2022-10-08T07:42:14.967Z,1588.00
2022-10-08T07:43:19.524Z,1592.00
2022-10-08T07:44:14.950Z,1592.00
2022-10-08T07:45:14.984Z,1580.00
2022-10-08T07:46:15.055Z,1496.00
2022-10-08T07:47:14.921Z,1440.00
2022-10-08T07:48:14.936Z,1448.00
2022-10-08T07:49:14.915Z,1432.00
2022-10-08T07:50:14.913Z,1548.00
2022-10-08T07:51:14.878Z,1380.00
2022-10-08T07:52:14.887Z,1360.00
2022-10-08T07:53:14.901Z,1428.00
2022-10-08T07:54:14.846Z,1628.00
2022-10-08T07:55:14.885Z,1512.00
2022-10-08T07:56:14.811Z,1420.00
2022-10-08T07:57:14.803Z,1340.00
2022-10-08T07:58:14.820Z,1364.00
2022-10-08T07:59:14.795Z,1384.00
2022-10-08T08:00:14.785Z,1396.00
2022-10-08T08:01:14.919Z,1424.00
2022-10-08T08:02:14.785Z,1436.00
2022-10-08T08:03:14.739Z,1456.00
2022-10-08T08:04:14.755Z,1468.00
2022-10-08T08:05:14.742Z,1380.00
2022-10-08T08:06:14.716Z,1460.00
2022-10-08T08:07:14.692Z,1620.00
2022-10-08T08:08:14.694Z,1456.00
2022-10-08T08:09:14.674Z,1504.00
2022-10-08T08:10:14.679Z,1540.00
2022-10-08T08:11:14.650Z,1640.00
2022-10-08T08:12:14.644Z,1652.00
2022-10-08T08:13:14.633Z,1828.00
2022-10-08T08:14:14.625Z,1576.00
2022-10-08T08:15:14.631Z,1620.00
2022-10-08T08:16:14.639Z,1592.00
2022-10-08T08:17:14.587Z,1680.00
2022-10-08T08:18:14.572Z,1832.00
2022-10-08T08:19:14.566Z,1908.00
2022-10-08T08:20:14.572Z,1844.00
2022-10-08T08:21:14.542Z,1876.00
2022-10-08T08:22:14.519Z,1988.00
2022-10-08T08:23:14.515Z,1964.00
2022-10-08T08:24:14.507Z,1804.00
2022-10-08T08:25:14.535Z,1744.00
2022-10-08T08:26:14.500Z,1748.00
2022-10-08T08:27:14.469Z,1908.00
2022-10-08T08:28:14.500Z,2120.00
2022-10-08T08:29:14.458Z,1848.00
2022-10-08T08:30:14.465Z,1776.00
2022-10-08T08:31:14.438Z,1760.00
2022-10-08T08:32:14.504Z,1764.00
2022-10-08T08:33:14.419Z,1744.00
2022-10-08T08:34:14.420Z,1796.00
2022-10-08T08:35:14.400Z,1700.00
2022-10-08T08:36:14.395Z,1684.00
2022-10-08T08:37:14.359Z,1760.00
2022-10-08T08:38:14.348Z,1668.00
2022-10-08T08:39:14.354Z,1680.00
2022-10-08T08:40:14.365Z,1728.00
2022-10-08T08:41:17.464Z,1664.00
2022-10-08T08:42:14.319Z,1724.00
2022-10-08T08:43:14.315Z,1704.00
2022-10-08T08:44:14.292Z,1708.00
2022-10-08T08:45:34.245Z,1744.00
2022-10-08T08:46:14.287Z,1768.00
2022-10-08T08:47:14.258Z,1824.00
2022-10-08T08:48:14.253Z,1836.00
2022-10-08T08:49:14.242Z,1844.00
2022-10-08T08:50:14.252Z,1884.00
2022-10-08T08:51:14.215Z,1916.00
2022-10-08T08:52:14.197Z,1960.00
2022-10-08T08:53:14.201Z,2776.00
2022-10-08T08:54:14.190Z,3360.00
2022-10-08T08:55:14.195Z,4376.00
2022-10-08T08:56:14.157Z,2928.00
2022-10-08T08:57:14.159Z,2432.00
2022-10-08T08:58:14.140Z,2104.00
2022-10-08T08:59:14.121Z,3048.00
2022-10-08T09:00:14.130Z,2960.00
2022-10-08T09:01:14.189Z,3264.00
2022-10-08T09:02:14.089Z,3848.00
2022-10-08T09:03:14.076Z,3264.00
2022-10-08T09:04:14.078Z,3404.00
2022-10-08T09:05:14.105Z,2668.00
2022-10-08T09:06:14.046Z,2808.00
2022-10-08T09:07:14.040Z,2724.00
2022-10-08T09:08:14.069Z,2988.00
2022-10-08T09:09:14.007Z,3560.00
2022-10-08T09:10:14.021Z,2992.00
2022-10-08T09:11:13.985Z,3032.00
2022-10-08T09:12:16.495Z,2048.00
2022-10-08T09:13:13.975Z,1968.00
2022-10-08T09:14:13.966Z,2168.00
2022-10-08T09:15:13.972Z,2812.00
2022-10-08T09:16:14.024Z,2480.00
2022-10-08T09:17:13.923Z,2376.00
2022-10-08T09:18:13.932Z,2256.00
2022-10-08T09:19:13.909Z,2188.00
2022-10-08T09:20:13.918Z,2204.00
2022-10-08T09:21:14.068Z,2200.00
2022-10-08T09:22:13.868Z,2312.00
2022-10-08T09:23:13.881Z,1744.00
2022-10-08T09:24:13.896Z,2212.00
2022-10-08T09:25:13.847Z,2224.00
2022-10-08T09:26:13.846Z,2012.00
2022-10-08T09:27:13.805Z,2556.00
2022-10-08T09:28:13.869Z,2672.00
2022-10-08T09:29:14.007Z,2292.00
2022-10-08T09:30:13.801Z,2252.00
2022-10-08T09:31:13.858Z,2256.00
2022-10-08T09:32:13.751Z,2224.00
2022-10-08T09:33:13.757Z,2268.00
2022-10-08T09:34:13.735Z,2180.00
2022-10-08T09:35:13.762Z,2224.00
2022-10-08T09:36:13.711Z,2224.00
2022-10-08T09:37:13.720Z,2224.00
2022-10-08T09:38:14.778Z,2228.00
2022-10-08T09:39:13.695Z,2188.00
2022-10-08T09:40:13.692Z,2236.00
2022-10-08T09:41:13.660Z,2464.00
2022-10-08T09:42:13.639Z,2612.00
2022-10-08T09:43:13.652Z,2396.00
2022-10-08T09:44:13.641Z,2368.00
2022-10-08T09:45:13.626Z,2860.00
2022-10-08T09:46:13.656Z,3040.00
2022-10-08T09:47:13.605Z,3300.00
2022-10-08T09:48:13.582Z,2832.00
2022-10-08T09:49:13.574Z,2900.00
2022-10-08T09:50:13.585Z,3372.00
2022-10-08T09:51:13.548Z,3000.00
2022-10-08T09:52:17.127Z,3300.00
2022-10-08T09:53:13.535Z,2956.00
2022-10-08T09:54:13.520Z,2696.00
2022-10-08T09:55:13.552Z,2580.00
2022-10-08T09:56:13.508Z,2528.00
2022-10-08T09:57:13.485Z,2232.00
2022-10-08T09:58:13.479Z,2176.00
2022-10-08T09:59:13.482Z,2240.00
2022-10-08T10:00:13.475Z,2188.00
2022-10-08T10:01:13.479Z,2680.00
2022-10-08T10:02:13.429Z,3212.00
2022-10-08T10:03:13.425Z,3204.00
2022-10-08T10:04:13.446Z,2776.00
2022-10-08T10:05:13.412Z,2284.00
2022-10-08T10:06:15.808Z,2280.00
2022-10-08T10:07:13.384Z,2476.00
2022-10-08T10:08:13.372Z,3056.00
2022-10-08T10:09:13.350Z,3168.00
2022-10-08T10:10:13.353Z,2760.00
2022-10-08T10:11:13.333Z,3192.00
2022-10-08T10:12:13.326Z,3724.00
2022-10-08T10:13:13.311Z,3268.00
2022-10-08T10:14:13.304Z,3348.00
2022-10-08T10:15:13.322Z,2624.00
2022-10-08T10:16:13.296Z,2732.00
2022-10-08T10:17:13.270Z,2732.00
2022-10-08T10:18:13.262Z,2544.00
2022-10-08T10:19:13.242Z,1736.00
2022-10-08T10:20:13.254Z,2512.00
2022-10-08T10:21:13.250Z,1824.00
2022-10-08T10:22:13.225Z,1960.00
2022-10-08T10:23:13.200Z,2232.00
2022-10-08T10:24:13.203Z,2944.00
2022-10-08T10:25:13.179Z,4148.00
2022-10-08T10:26:13.208Z,4040.00
2022-10-08T10:27:13.193Z,3632.00
2022-10-08T10:28:13.235Z,3212.00
2022-10-08T10:29:13.140Z,2992.00
2022-10-08T10:30:13.154Z,2864.00
2022-10-08T10:31:13.210Z,2980.00
2022-10-08T10:32:14.746Z,3444.00
2022-10-08T10:33:13.095Z,3696.00
2022-10-08T10:34:13.090Z,3984.00
2022-10-08T10:35:13.088Z,4744.00
2022-10-08T10:36:13.092Z,5056.00
2022-10-08T10:37:13.049Z,5268.00
2022-10-08T10:38:13.046Z,5548.00
2022-10-08T10:39:13.055Z,4540.00
2022-10-08T10:40:13.015Z,4384.00
2022-10-08T10:41:13.033Z,4436.00
2022-10-08T10:42:13.007Z,5136.00
2022-10-08T10:43:12.997Z,5508.00
2022-10-08T10:44:12.977Z,5424.00
2022-10-08T10:45:12.985Z,6220.00
2022-10-08T10:46:13.046Z,6116.00
2022-10-08T10:47:12.946Z,5280.00
2022-10-08T10:48:12.950Z,4860.00
2022-10-08T10:49:12.927Z,3988.00
2022-10-08T10:50:12.919Z,3388.00
2022-10-08T10:51:12.935Z,3052.00
2022-10-08T10:52:12.892Z,2836.00
2022-10-08T10:53:12.899Z,2648.00
2022-10-08T10:54:12.879Z,2216.00
2022-10-08T10:55:12.856Z,1920.00
2022-10-08T10:56:12.882Z,1732.00
2022-10-08T10:57:12.830Z,2088.00
2022-10-08T10:58:12.822Z,2244.00
2022-10-08T10:59:12.811Z,2044.00
2022-10-08T11:00:12.809Z,2124.00
2022-10-08T11:01:12.848Z,2388.00
2022-10-08T11:02:12.808Z,2604.00
2022-10-08T11:03:12.854Z,2584.00
2022-10-08T11:04:12.754Z,2384.00
2022-10-08T11:05:12.746Z,2184.00
2022-10-08T11:06:12.759Z,2136.00
2022-10-08T11:07:12.724Z,2132.00
2022-10-08T11:08:12.728Z,2156.00
2022-10-08T11:09:12.696Z,2660.00
2022-10-08T11:10:12.700Z,2904.00
2022-10-08T11:11:12.702Z,2964.00
2022-10-08T11:12:12.679Z,2952.00
2022-10-08T11:13:12.676Z,3196.00
2022-10-08T11:14:12.748Z,3504.00
2022-10-08T11:15:12.637Z,3852.00
2022-10-08T11:16:12.679Z,4408.00
2022-10-08T11:17:12.620Z,4864.00
2022-10-08T11:18:12.612Z,5500.00
2022-10-08T11:19:12.596Z,7168.00
2022-10-08T11:20:12.634Z,7796.00
2022-10-08T11:21:12.599Z,7260.00
2022-10-08T11:22:12.591Z,6684.00
2022-10-08T11:23:12.563Z,5512.00
2022-10-08T11:24:12.549Z,5836.00
2022-10-08T11:25:12.531Z,5364.00
2022-10-08T11:26:22.380Z,6620.00
2022-10-08T11:27:12.513Z,6736.00
2022-10-08T11:28:12.546Z,6276.00
2022-10-08T11:29:12.483Z,6436.00
2022-10-08T11:30:12.479Z,6204.00
2022-10-08T11:31:12.585Z,5432.00
2022-10-08T11:32:12.460Z,5644.00
2022-10-08T11:33:12.470Z,5792.00
2022-10-08T11:34:12.529Z,5668.00
2022-10-08T11:35:12.464Z,5120.00
2022-10-08T11:36:12.419Z,4564.00
2022-10-08T11:37:12.487Z,5012.00
2022-10-08T11:38:12.382Z,5792.00
2022-10-08T11:39:12.376Z,6372.00
2022-10-08T11:40:12.401Z,6284.00
2022-10-08T11:41:12.370Z,6320.00
2022-10-08T11:42:12.348Z,6376.00
2022-10-08T11:43:12.325Z,6336.00
2022-10-08T11:44:12.333Z,5124.00
2022-10-08T11:45:12.312Z,4184.00
2022-10-08T11:46:12.370Z,4204.00
2022-10-08T11:47:12.287Z,4648.00
2022-10-08T11:48:12.273Z,3704.00
2022-10-08T11:49:12.259Z,4184.00
2022-10-08T11:50:12.252Z,4920.00
2022-10-08T11:51:12.259Z,4812.00
2022-10-08T11:52:12.227Z,3572.00
2022-10-08T11:53:12.209Z,3428.00
2022-10-08T11:54:12.204Z,4460.00
2022-10-08T11:55:12.201Z,5000.00
2022-10-08T11:56:12.213Z,4732.00
2022-10-08T11:57:12.175Z,4124.00
2022-10-08T11:58:12.177Z,3416.00
2022-10-08T11:59:12.142Z,2812.00
2022-10-08T12:00:12.148Z,2324.00
2022-10-08T12:01:12.150Z,2540.00
2022-10-08T12:02:12.213Z,3484.00
2022-10-08T12:03:12.203Z,4360.00
2022-10-08T12:04:12.103Z,4268.00
2022-10-08T12:05:12.079Z,4416.00
2022-10-08T12:06:12.089Z,4356.00
2022-10-08T12:07:12.071Z,4276.00
2022-10-08T12:08:12.059Z,4552.00
2022-10-08T12:09:12.037Z,4888.00
2022-10-08T12:10:12.035Z,5340.00
2022-10-08T12:11:12.164Z,4684.00
2022-10-08T12:12:12.012Z,4368.00
2022-10-08T12:13:16.739Z,4432.00
2022-10-08T12:14:11.994Z,4756.00
2022-10-08T12:15:18.530Z,4844.00
2022-10-08T12:16:12.026Z,5004.00
2022-10-08T12:17:11.958Z,5100.00
2022-10-08T12:18:11.941Z,4968.00
2022-10-08T12:19:11.928Z,4808.00
2022-10-08T12:20:11.932Z,5204.00
2022-10-08T12:21:11.924Z,5464.00
2022-10-08T12:22:11.893Z,4816.00
2022-10-08T12:23:11.882Z,5088.00
2022-10-08T12:24:11.874Z,5388.00
2022-10-08T12:25:11.871Z,5556.00
2022-10-08T12:26:11.875Z,5548.00
2022-10-08T12:27:11.846Z,4924.00
2022-10-08T12:28:11.896Z,4120.00
2022-10-08T12:29:11.816Z,3756.00
2022-10-08T12:30:11.809Z,3304.00
2022-10-08T12:31:11.864Z,3492.00
2022-10-08T12:32:11.799Z,3720.00
2022-10-08T12:33:11.768Z,3596.00
2022-10-08T12:34:11.756Z,2792.00
2022-10-08T12:35:11.761Z,2304.00
2022-10-08T12:36:11.761Z,2580.00
2022-10-08T12:37:15.792Z,2796.00
2022-10-08T12:38:11.736Z,2504.00